sensor_id;sensor_type;location;lat;lon;timestamp;temperature;humidity
20057;DHT22;10189;49.546;7.906;2023-12-04T00:02:06;-5.80;99.90
20057;DHT22;10189;49.546;7.906;2023-12-04T00:04:32;-5.80;99.90
20057;DHT22;10189;49.546;7.906;2023-12-04T00:06:58;-5.90;99.90
20057;DHT22;10189;49.546;7.906;2023-12-04T00:09:24;-5.90;99.90
20057;DHT22;10189;49.546;7.906;2023-12-04T00:11:50;-6.00;99.90
20057;DHT22;10189;49.546;7.906;2023-12-04T00:14:17;-6.00;99.90
20057;DHT22;10189;49.546;7.906;2023-12-04T00:16:44;-6.10;99.90
20057;DHT22;10189;49.546;7.906;2023-12-04T00:19:10;-6.10;99.90
20057;DHT22;10189;49.546;7.906;2023-12-04T00:21:36;-6.00;99.90
20057;DHT22;10189;49.546;7.906;2023-12-04T00:24:01;-6.00;99.90
20057;DHT22;10189;49.546;7.906;2023-12-04T00:26:27;-6.10;99.90
20057;DHT22;10189;49.546;7.906;2023-12-04T00:28:53;-6.10;99.90
20057;DHT22;10189;49.546;7.906;2023-12-04T00:31:20;-6.10;99.90
20057;DHT22;10189;49.546;7.906;2023-12-04T00:33:45;-6.10;99.90
20057;DHT22;10189;49.546;7.906;2023-12-04T00:36:14;-6.10;99.90
20057;DHT22;10189;49.546;7.906;2023-12-04T00:38:40;-6.00;99.90
20057;DHT22;10189;49.546;7.906;2023-12-04T00:41:07;-5.90;99.90
20057;DHT22;10189;49.546;7.906;2023-12-04T00:43:33;-6.00;99.90
20057;DHT22;10189;49.546;7.906;2023-12-04T00:45:59;-6.00;99.90
20057;DHT22;10189;49.546;7.906;2023-12-04T00:48:24;-6.00;99.90
20057;DHT22;10189;49.546;7.906;2023-12-04T00:50:51;-6.00;99.90
20057;DHT22;10189;49.546;7.906;2023-12-04T00:53:17;-6.00;99.90
20057;DHT22;10189;49.546;7.906;2023-12-04T00:55:43;-6.00;99.90
20057;DHT22;10189;49.546;7.906;2023-12-04T00:58:08;-6.10;99.90
20057;DHT22;10189;49.546;7.906;2023-12-04T01:00:34;-6.10;99.90
20057;DHT22;10189;49.546;7.906;2023-12-04T01:03:00;-6.10;99.90
20057;DHT22;10189;49.546;7.906;2023-12-04T01:05:26;-6.20;99.90
20057;DHT22;10189;49.546;7.906;2023-12-04T01:07:52;-6.20;99.90
20057;DHT22;10189;49.546;7.906;2023-12-04T01:10:18;-6.20;99.90
20057;DHT22;10189;49.546;7.906;2023-12-04T01:12:44;-6.20;99.90
20057;DHT22;10189;49.546;7.906;2023-12-04T01:15:10;-6.20;99.90
20057;DHT22;10189;49.546;7.906;2023-12-04T01:17:36;-6.10;99.90
20057;DHT22;10189;49.546;7.906;2023-12-04T01:20:02;-6.10;99.90
20057;DHT22;10189;49.546;7.906;2023-12-04T01:22:28;-6.10;99.90
20057;DHT22;10189;49.546;7.906;2023-12-04T01:24:53;-6.10;99.90
20057;DHT22;10189;49.546;7.906;2023-12-04T01:27:19;-6.10;99.90
20057;DHT22;10189;49.546;7.906;2023-12-04T01:29:45;-6.00;99.90
20057;DHT22;10189;49.546;7.906;2023-12-04T01:32:11;-6.10;99.90
20057;DHT22;10189;49.546;7.906;2023-12-04T01:34:37;-6.10;99.90
20057;DHT22;10189;49.546;7.906;2023-12-04T01:37:03;-6.10;99.90
20057;DHT22;10189;49.546;7.906;2023-12-04T01:39:29;-6.10;99.90
20057;DHT22;10189;49.546;7.906;2023-12-04T01:41:55;-6.20;99.90
20057;DHT22;10189;49.546;7.906;2023-12-04T01:44:20;-6.20;99.90
20057;DHT22;10189;49.546;7.906;2023-12-04T01:46:48;-6.20;99.90
20057;DHT22;10189;49.546;7.906;2023-12-04T01:49:14;-6.20;99.90
20057;DHT22;10189;49.546;7.906;2023-12-04T01:51:40;-6.20;99.90
20057;DHT22;10189;49.546;7.906;2023-12-04T01:54:07;-6.20;99.90
20057;DHT22;10189;49.546;7.906;2023-12-04T01:56:34;-6.30;99.90
20057;DHT22;10189;49.546;7.906;2023-12-04T01:59:02;-6.30;99.90
20057;DHT22;10189;49.546;7.906;2023-12-04T02:01:28;-6.40;99.90
20057;DHT22;10189;49.546;7.906;2023-12-04T02:03:55;-6.40;99.90
20057;DHT22;10189;49.546;7.906;2023-12-04T02:06:22;-6.40;99.90
20057;DHT22;10189;49.546;7.906;2023-12-04T02:08:48;-6.40;99.90
20057;DHT22;10189;49.546;7.906;2023-12-04T02:11:14;-6.40;99.90
20057;DHT22;10189;49.546;7.906;2023-12-04T02:13:40;-6.40;99.90
20057;DHT22;10189;49.546;7.906;2023-12-04T02:16:09;-6.30;99.90
20057;DHT22;10189;49.546;7.906;2023-12-04T02:18:39;-6.30;99.90
20057;DHT22;10189;49.546;7.906;2023-12-04T02:21:06;-6.40;99.90
20057;DHT22;10189;49.546;7.906;2023-12-04T02:23:32;-6.40;99.90
20057;DHT22;10189;49.546;7.906;2023-12-04T02:26:10;-6.40;99.90
20057;DHT22;10189;49.546;7.906;2023-12-04T02:28:41;-6.40;99.90
20057;DHT22;10189;49.546;7.906;2023-12-04T02:31:16;-6.40;99.90
20057;DHT22;10189;49.546;7.906;2023-12-04T02:33:43;-6.40;99.90
20057;DHT22;10189;49.546;7.906;2023-12-04T02:36:12;-6.30;99.90
20057;DHT22;10189;49.546;7.906;2023-12-04T02:38:39;-6.30;99.90
20057;DHT22;10189;49.546;7.906;2023-12-04T02:41:05;-6.20;99.90
20057;DHT22;10189;49.546;7.906;2023-12-04T02:43:32;-6.20;99.90
20057;DHT22;10189;49.546;7.906;2023-12-04T02:46:03;-6.20;99.90
20057;DHT22;10189;49.546;7.906;2023-12-04T02:48:29;-6.20;99.90
20057;DHT22;10189;49.546;7.906;2023-12-04T02:50:55;-6.10;99.90
20057;DHT22;10189;49.546;7.906;2023-12-04T02:53:21;-6.10;99.90
20057;DHT22;10189;49.546;7.906;2023-12-04T02:55:47;-6.10;99.90
20057;DHT22;10189;49.546;7.906;2023-12-04T02:58:13;-6.10;99.90
20057;DHT22;10189;49.546;7.906;2023-12-04T03:00:38;-6.10;99.90
20057;DHT22;10189;49.546;7.906;2023-12-04T03:03:04;-6.10;99.90
20057;DHT22;10189;49.546;7.906;2023-12-04T03:05:30;-6.10;99.90
20057;DHT22;10189;49.546;7.906;2023-12-04T03:07:56;-6.00;99.90
20057;DHT22;10189;49.546;7.906;2023-12-04T03:10:22;-6.00;99.90
20057;DHT22;10189;49.546;7.906;2023-12-04T03:12:47;-6.10;99.90
20057;DHT22;10189;49.546;7.906;2023-12-04T03:15:14;-6.10;99.90
20057;DHT22;10189;49.546;7.906;2023-12-04T03:17:41;-6.10;99.90
20057;DHT22;10189;49.546;7.906;2023-12-04T03:20:07;-6.10;99.90
20057;DHT22;10189;49.546;7.906;2023-12-04T03:22:37;-6.00;99.90
20057;DHT22;10189;49.546;7.906;2023-12-04T03:25:03;-6.00;99.90
20057;DHT22;10189;49.546;7.906;2023-12-04T03:27:29;-6.10;99.90
20057;DHT22;10189;49.546;7.906;2023-12-04T03:29:55;-6.10;99.90
20057;DHT22;10189;49.546;7.906;2023-12-04T03:32:21;-6.10;99.90
20057;DHT22;10189;49.546;7.906;2023-12-04T03:34:47;-6.20;99.90
20057;DHT22;10189;49.546;7.906;2023-12-04T03:37:13;-6.20;99.90
20057;DHT22;10189;49.546;7.906;2023-12-04T03:39:38;-6.20;99.90
20057;DHT22;10189;49.546;7.906;2023-12-04T03:42:04;-6.30;99.90
20057;DHT22;10189;49.546;7.906;2023-12-04T03:44:30;-6.20;99.90
20057;DHT22;10189;49.546;7.906;2023-12-04T03:46:56;-6.20;99.90
20057;DHT22;10189;49.546;7.906;2023-12-04T03:49:22;-6.10;99.90
20057;DHT22;10189;49.546;7.906;2023-12-04T03:51:48;-6.10;99.90
20057;DHT22;10189;49.546;7.906;2023-12-04T03:54:13;-6.00;99.90
20057;DHT22;10189;49.546;7.906;2023-12-04T03:56:39;-5.90;99.90
20057;DHT22;10189;49.546;7.906;2023-12-04T03:59:08;-6.00;99.90
20057;DHT22;10189;49.546;7.906;2023-12-04T04:01:34;-6.00;99.90
20057;DHT22;10189;49.546;7.906;2023-12-04T04:04:00;-6.10;99.90
20057;DHT22;10189;49.546;7.906;2023-12-04T04:06:26;-6.10;99.90
20057;DHT22;10189;49.546;7.906;2023-12-04T04:08:51;-6.20;99.90
20057;DHT22;10189;49.546;7.906;2023-12-04T04:11:18;-6.10;99.90
20057;DHT22;10189;49.546;7.906;2023-12-04T04:13:44;-6.10;99.90
20057;DHT22;10189;49.546;7.906;2023-12-04T04:16:14;-6.10;99.90
20057;DHT22;10189;49.546;7.906;2023-12-04T04:18:42;-6.10;99.90
20057;DHT22;10189;49.546;7.906;2023-12-04T04:21:09;-6.10;99.90
20057;DHT22;10189;49.546;7.906;2023-12-04T04:23:35;-6.10;99.90
20057;DHT22;10189;49.546;7.906;2023-12-04T04:26:01;-6.20;99.90
20057;DHT22;10189;49.546;7.906;2023-12-04T04:28:28;-6.20;99.90
20057;DHT22;10189;49.546;7.906;2023-12-04T04:30:53;-6.10;99.90
20057;DHT22;10189;49.546;7.906;2023-12-04T04:33:19;-6.10;99.90
20057;DHT22;10189;49.546;7.906;2023-12-04T04:35:45;-6.10;99.90
20057;DHT22;10189;49.546;7.906;2023-12-04T04:38:11;-6.10;99.90
20057;DHT22;10189;49.546;7.906;2023-12-04T04:40:37;-6.20;99.90
20057;DHT22;10189;49.546;7.906;2023-12-04T04:43:07;-6.10;99.90
20057;DHT22;10189;49.546;7.906;2023-12-04T04:45:34;-6.10;99.90
20057;DHT22;10189;49.546;7.906;2023-12-04T04:47:59;-6.10;99.90
20057;DHT22;10189;49.546;7.906;2023-12-04T04:50:25;-6.00;99.90
20057;DHT22;10189;49.546;7.906;2023-12-04T04:52:51;-5.90;99.90
20057;DHT22;10189;49.546;7.906;2023-12-04T04:55:17;-5.90;99.90
20057;DHT22;10189;49.546;7.906;2023-12-04T04:57:43;-5.90;99.90
20057;DHT22;10189;49.546;7.906;2023-12-04T05:00:09;-5.90;99.90
20057;DHT22;10189;49.546;7.906;2023-12-04T05:02:35;-5.90;99.90
20057;DHT22;10189;49.546;7.906;2023-12-04T05:05:03;-5.90;99.90
20057;DHT22;10189;49.546;7.906;2023-12-04T05:07:29;-5.90;99.90
20057;DHT22;10189;49.546;7.906;2023-12-04T05:09:55;-6.00;99.90
20057;DHT22;10189;49.546;7.906;2023-12-04T05:12:21;-6.00;99.90
20057;DHT22;10189;49.546;7.906;2023-12-04T05:14:47;-6.00;99.90
20057;DHT22;10189;49.546;7.906;2023-12-04T05:17:13;-6.00;99.90
20057;DHT22;10189;49.546;7.906;2023-12-04T05:19:38;-6.00;99.90
20057;DHT22;10189;49.546;7.906;2023-12-04T05:22:04;-5.90;99.90
20057;DHT22;10189;49.546;7.906;2023-12-04T05:24:30;-5.80;99.90
20057;DHT22;10189;49.546;7.906;2023-12-04T05:26:56;-5.80;99.90
20057;DHT22;10189;49.546;7.906;2023-12-04T05:29:22;-5.70;99.90
20057;DHT22;10189;49.546;7.906;2023-12-04T05:31:47;-5.80;99.90
20057;DHT22;10189;49.546;7.906;2023-12-04T05:34:13;-5.90;99.90
20057;DHT22;10189;49.546;7.906;2023-12-04T05:36:39;-5.90;99.90
20057;DHT22;10189;49.546;7.906;2023-12-04T05:39:05;-6.00;99.90
20057;DHT22;10189;49.546;7.906;2023-12-04T05:41:31;-6.00;99.90
20057;DHT22;10189;49.546;7.906;2023-12-04T05:43:57;-6.00;99.90
20057;DHT22;10189;49.546;7.906;2023-12-04T05:46:22;-5.90;99.90
20057;DHT22;10189;49.546;7.906;2023-12-04T05:48:49;-5.80;99.90
20057;DHT22;10189;49.546;7.906;2023-12-04T05:51:15;-5.90;99.90
20057;DHT22;10189;49.546;7.906;2023-12-04T05:53:41;-5.70;99.90
20057;DHT22;10189;49.546;7.906;2023-12-04T05:56:07;-5.70;99.90
20057;DHT22;10189;49.546;7.906;2023-12-04T05:58:35;-5.60;99.90
20057;DHT22;10189;49.546;7.906;2023-12-04T06:01:01;-5.60;99.90
20057;DHT22;10189;49.546;7.906;2023-12-04T06:03:27;-5.60;99.90
20057;DHT22;10189;49.546;7.906;2023-12-04T06:05:52;-5.60;99.90
20057;DHT22;10189;49.546;7.906;2023-12-04T06:08:18;-5.50;99.90
20057;DHT22;10189;49.546;7.906;2023-12-04T06:10:45;-5.40;99.90
20057;DHT22;10189;49.546;7.906;2023-12-04T06:13:11;-5.40;99.90
20057;DHT22;10189;49.546;7.906;2023-12-04T06:15:37;-5.40;99.90
20057;DHT22;10189;49.546;7.906;2023-12-04T06:18:03;-5.40;99.90
20057;DHT22;10189;49.546;7.906;2023-12-04T06:20:30;-5.40;99.90
20057;DHT22;10189;49.546;7.906;2023-12-04T06:22:56;-5.40;99.90
20057;DHT22;10189;49.546;7.906;2023-12-04T06:25:22;-5.30;99.90
20057;DHT22;10189;49.546;7.906;2023-12-04T06:27:48;-5.40;99.90
20057;DHT22;10189;49.546;7.906;2023-12-04T06:30:15;-5.40;99.90
20057;DHT22;10189;49.546;7.906;2023-12-04T06:32:41;-5.40;99.90
20057;DHT22;10189;49.546;7.906;2023-12-04T06:35:08;-5.40;99.90
20057;DHT22;10189;49.546;7.906;2023-12-04T06:37:34;-5.40;99.90
20057;DHT22;10189;49.546;7.906;2023-12-04T06:40:04;-5.30;99.90
20057;DHT22;10189;49.546;7.906;2023-12-04T06:42:31;-5.30;99.90
20057;DHT22;10189;49.546;7.906;2023-12-04T06:44:58;-5.20;99.90
20057;DHT22;10189;49.546;7.906;2023-12-04T06:47:24;-5.20;99.90
20057;DHT22;10189;49.546;7.906;2023-12-04T06:49:50;-5.30;99.90
20057;DHT22;10189;49.546;7.906;2023-12-04T06:52:16;-5.30;99.90
20057;DHT22;10189;49.546;7.906;2023-12-04T06:54:42;-5.20;99.90
20057;DHT22;10189;49.546;7.906;2023-12-04T06:57:07;-5.20;99.90
20057;DHT22;10189;49.546;7.906;2023-12-04T06:59:33;-5.20;99.90
20057;DHT22;10189;49.546;7.906;2023-12-04T07:01:59;-5.20;99.90
20057;DHT22;10189;49.546;7.906;2023-12-04T07:04:25;-5.20;99.90
20057;DHT22;10189;49.546;7.906;2023-12-04T07:06:51;-5.20;99.90
20057;DHT22;10189;49.546;7.906;2023-12-04T07:09:17;-5.20;99.90
20057;DHT22;10189;49.546;7.906;2023-12-04T07:11:43;-5.10;99.90
20057;DHT22;10189;49.546;7.906;2023-12-04T07:14:09;-5.10;99.90
20057;DHT22;10189;49.546;7.906;2023-12-04T07:16:42;-5.10;99.90
20057;DHT22;10189;49.546;7.906;2023-12-04T07:19:09;-5.10;99.90
20057;DHT22;10189;49.546;7.906;2023-12-04T07:21:36;-5.10;99.90
20057;DHT22;10189;49.546;7.906;2023-12-04T07:24:03;-5.00;99.90
20057;DHT22;10189;49.546;7.906;2023-12-04T07:26:30;-5.00;99.90
20057;DHT22;10189;49.546;7.906;2023-12-04T07:28:58;-5.00;99.90
20057;DHT22;10189;49.546;7.906;2023-12-04T07:31:24;-4.90;99.90
20057;DHT22;10189;49.546;7.906;2023-12-04T07:33:54;-4.90;99.90
20057;DHT22;10189;49.546;7.906;2023-12-04T07:36:21;-4.90;99.90
20057;DHT22;10189;49.546;7.906;2023-12-04T07:38:49;-4.80;99.90
20057;DHT22;10189;49.546;7.906;2023-12-04T07:41:17;-4.80;99.90
20057;DHT22;10189;49.546;7.906;2023-12-04T07:43:43;-4.80;99.90
20057;DHT22;10189;49.546;7.906;2023-12-04T07:46:10;-4.70;99.90
20057;DHT22;10189;49.546;7.906;2023-12-04T07:48:37;-4.60;99.90
20057;DHT22;10189;49.546;7.906;2023-12-04T07:51:03;-4.60;99.90
20057;DHT22;10189;49.546;7.906;2023-12-04T07:53:30;-4.60;99.90
20057;DHT22;10189;49.546;7.906;2023-12-04T07:55:55;-4.60;99.90
20057;DHT22;10189;49.546;7.906;2023-12-04T07:58:21;-4.60;99.90
20057;DHT22;10189;49.546;7.906;2023-12-04T08:00:48;-4.70;99.90
20057;DHT22;10189;49.546;7.906;2023-12-04T08:03:13;-4.80;99.90
20057;DHT22;10189;49.546;7.906;2023-12-04T08:05:39;-4.70;99.90
20057;DHT22;10189;49.546;7.906;2023-12-04T08:08:05;-4.60;99.80
20057;DHT22;10189;49.546;7.906;2023-12-04T08:10:31;-4.50;99.90
20057;DHT22;10189;49.546;7.906;2023-12-04T08:12:57;-4.40;99.90
20057;DHT22;10189;49.546;7.906;2023-12-04T08:15:24;-4.20;99.90
20057;DHT22;10189;49.546;7.906;2023-12-04T08:17:49;-4.10;99.40
20057;DHT22;10189;49.546;7.906;2023-12-04T08:20:16;-4.00;99.00
20057;DHT22;10189;49.546;7.906;2023-12-04T08:22:42;-3.80;98.80
20057;DHT22;10189;49.546;7.906;2023-12-04T08:25:10;-3.80;97.70
20057;DHT22;10189;49.546;7.906;2023-12-04T08:27:36;-3.70;96.70
20057;DHT22;10189;49.546;7.906;2023-12-04T08:30:04;-3.60;96.40
20057;DHT22;10189;49.546;7.906;2023-12-04T08:32:31;-3.60;95.70
20057;DHT22;10189;49.546;7.906;2023-12-04T08:34:57;-3.60;96.40
20057;DHT22;10189;49.546;7.906;2023-12-04T08:37:23;-3.50;96.70
20057;DHT22;10189;49.546;7.906;2023-12-04T08:39:48;-3.50;96.90
20057;DHT22;10189;49.546;7.906;2023-12-04T08:42:14;-3.30;95.40
20057;DHT22;10189;49.546;7.906;2023-12-04T08:44:40;-3.30;94.60
20057;DHT22;10189;49.546;7.906;2023-12-04T08:47:06;-3.30;94.90
20057;DHT22;10189;49.546;7.906;2023-12-04T08:49:32;-3.20;94.90
20057;DHT22;10189;49.546;7.906;2023-12-04T08:51:59;-3.30;95.10
20057;DHT22;10189;49.546;7.906;2023-12-04T08:54:25;-3.30;94.00
20057;DHT22;10189;49.546;7.906;2023-12-04T08:56:51;-3.40;95.40
20057;DHT22;10189;49.546;7.906;2023-12-04T08:59:17;-3.30;95.40
20057;DHT22;10189;49.546;7.906;2023-12-04T09:01:43;-3.30;94.60
20057;DHT22;10189;49.546;7.906;2023-12-04T09:04:09;-3.30;94.80
20057;DHT22;10189;49.546;7.906;2023-12-04T09:06:35;-3.40;94.90
20057;DHT22;10189;49.546;7.906;2023-12-04T09:09:01;-3.40;95.40
20057;DHT22;10189;49.546;7.906;2023-12-04T09:11:28;-3.50;95.40
20057;DHT22;10189;49.546;7.906;2023-12-04T09:13:54;-3.60;96.40
20057;DHT22;10189;49.546;7.906;2023-12-04T09:16:20;-3.60;96.90
20057;DHT22;10189;49.546;7.906;2023-12-04T09:18:46;-3.50;97.00
20057;DHT22;10189;49.546;7.906;2023-12-04T09:21:12;-3.50;96.20
20057;DHT22;10189;49.546;7.906;2023-12-04T09:23:38;-3.50;96.70
20057;DHT22;10189;49.546;7.906;2023-12-04T09:26:04;-3.40;96.30
20057;DHT22;10189;49.546;7.906;2023-12-04T09:28:30;-3.30;95.90
20057;DHT22;10189;49.546;7.906;2023-12-04T09:30:56;-3.20;95.70
20057;DHT22;10189;49.546;7.906;2023-12-04T09:33:21;-3.10;94.70
20057;DHT22;10189;49.546;7.906;2023-12-04T09:35:47;-3.20;94.80
20057;DHT22;10189;49.546;7.906;2023-12-04T09:38:13;-3.10;94.80
20057;DHT22;10189;49.546;7.906;2023-12-04T09:40:39;-3.10;95.00
20057;DHT22;10189;49.546;7.906;2023-12-04T09:43:08;-3.10;94.90
20057;DHT22;10189;49.546;7.906;2023-12-04T09:45:35;-3.00;94.90
20057;DHT22;10189;49.546;7.906;2023-12-04T09:48:02;-3.00;94.50
20057;DHT22;10189;49.546;7.906;2023-12-04T09:50:28;-2.90;95.30
20057;DHT22;10189;49.546;7.906;2023-12-04T09:52:55;-2.80;93.90
20057;DHT22;10189;49.546;7.906;2023-12-04T09:55:25;-2.80;93.50
20057;DHT22;10189;49.546;7.906;2023-12-04T09:57:51;-2.80;94.30
20057;DHT22;10189;49.546;7.906;2023-12-04T10:00:17;-2.90;95.60
20057;DHT22;10189;49.546;7.906;2023-12-04T10:02:46;-3.00;97.30
20057;DHT22;10189;49.546;7.906;2023-12-04T10:05:12;-2.90;98.20
20057;DHT22;10189;49.546;7.906;2023-12-04T10:07:39;-2.90;99.20
20057;DHT22;10189;49.546;7.906;2023-12-04T10:10:05;-2.80;99.30
20057;DHT22;10189;49.546;7.906;2023-12-04T10:12:33;-2.60;99.30
20057;DHT22;10189;49.546;7.906;2023-12-04T10:15:07;-2.50;99.30
20057;DHT22;10189;49.546;7.906;2023-12-04T10:17:36;-2.40;99.40
20057;DHT22;10189;49.546;7.906;2023-12-04T10:20:10;-2.60;98.60
20057;DHT22;10189;49.546;7.906;2023-12-04T10:22:39;-2.70;98.90
20057;DHT22;10189;49.546;7.906;2023-12-04T10:25:16;-2.90;99.60
20057;DHT22;10189;49.546;7.906;2023-12-04T10:27:44;-3.10;99.90
20057;DHT22;10189;49.546;7.906;2023-12-04T10:30:22;-3.10;99.90
20057;DHT22;10189;49.546;7.906;2023-12-04T10:33:01;-3.10;99.90
20057;DHT22;10189;49.546;7.906;2023-12-04T10:35:32;-3.20;99.90
20057;DHT22;10189;49.546;7.906;2023-12-04T10:38:02;-3.10;99.90
20057;DHT22;10189;49.546;7.906;2023-12-04T10:40:33;-3.10;99.90
20057;DHT22;10189;49.546;7.906;2023-12-04T10:45:39;-3.00;99.90
20057;DHT22;10189;49.546;7.906;2023-12-04T10:48:06;-3.10;99.90
20057;DHT22;10189;49.546;7.906;2023-12-04T10:50:38;-3.10;99.90
20057;DHT22;10189;49.546;7.906;2023-12-04T10:53:09;-3.20;99.90
20057;DHT22;10189;49.546;7.906;2023-12-04T10:55:37;-3.10;99.90
20057;DHT22;10189;49.546;7.906;2023-12-04T10:58:09;-3.20;99.90
20057;DHT22;10189;49.546;7.906;2023-12-04T11:00:39;-3.10;99.90
20057;DHT22;10189;49.546;7.906;2023-12-04T11:03:10;-3.10;99.90
20057;DHT22;10189;49.546;7.906;2023-12-04T11:06:00;-3.20;99.90
20057;DHT22;10189;49.546;7.906;2023-12-04T11:08:29;-3.00;99.90
20057;DHT22;10189;49.546;7.906;2023-12-04T11:11:04;-2.80;99.90
20057;DHT22;10189;49.546;7.906;2023-12-04T11:13:41;-2.80;99.90
20057;DHT22;10189;49.546;7.906;2023-12-04T11:16:18;-2.70;99.90
20057;DHT22;10189;49.546;7.906;2023-12-04T11:18:56;-2.60;99.90
20057;DHT22;10189;49.546;7.906;2023-12-04T11:21:32;-2.70;99.90
20057;DHT22;10189;49.546;7.906;2023-12-04T11:23:59;-2.60;99.90
20057;DHT22;10189;49.546;7.906;2023-12-04T11:26:26;-2.60;99.90
20057;DHT22;10189;49.546;7.906;2023-12-04T11:28:54;-2.70;99.90
20057;DHT22;10189;49.546;7.906;2023-12-04T11:31:20;-2.70;99.90
20057;DHT22;10189;49.546;7.906;2023-12-04T11:33:47;-2.90;99.90
20057;DHT22;10189;49.546;7.906;2023-12-04T11:36:13;-2.90;99.90
20057;DHT22;10189;49.546;7.906;2023-12-04T11:38:45;-2.80;99.90
20057;DHT22;10189;49.546;7.906;2023-12-04T11:41:23;-2.70;99.90
20057;DHT22;10189;49.546;7.906;2023-12-04T11:43:51;-2.60;99.90
20057;DHT22;10189;49.546;7.906;2023-12-04T11:46:25;-2.50;99.90
20057;DHT22;10189;49.546;7.906;2023-12-04T11:48:57;-2.40;99.90
20057;DHT22;10189;49.546;7.906;2023-12-04T11:54:14;-2.40;99.90
20057;DHT22;10189;49.546;7.906;2023-12-04T11:59:39;-2.20;99.90
20057;DHT22;10189;49.546;7.906;2023-12-04T12:02:09;-2.20;99.90
20057;DHT22;10189;49.546;7.906;2023-12-04T12:04:37;-2.20;99.90
20057;DHT22;10189;49.546;7.906;2023-12-04T12:07:05;-2.20;99.90
20057;DHT22;10189;49.546;7.906;2023-12-04T12:09:32;-2.20;99.90
20057;DHT22;10189;49.546;7.906;2023-12-04T12:12:03;-2.10;99.90
20057;DHT22;10189;49.546;7.906;2023-12-04T12:14:29;-2.10;99.90
20057;DHT22;10189;49.546;7.906;2023-12-04T12:16:59;-2.10;99.90
20057;DHT22;10189;49.546;7.906;2023-12-04T12:19:25;-2.10;99.90
20057;DHT22;10189;49.546;7.906;2023-12-04T12:21:51;-2.20;99.90
20057;DHT22;10189;49.546;7.906;2023-12-04T12:24:18;-2.10;99.90
20057;DHT22;10189;49.546;7.906;2023-12-04T12:26:44;-2.10;99.90
20057;DHT22;10189;49.546;7.906;2023-12-04T12:29:11;-2.00;99.90
20057;DHT22;10189;49.546;7.906;2023-12-04T12:31:37;-1.90;99.90
20057;DHT22;10189;49.546;7.906;2023-12-04T12:34:03;-1.80;99.90
20057;DHT22;10189;49.546;7.906;2023-12-04T12:36:29;-2.00;99.90
20057;DHT22;10189;49.546;7.906;2023-12-04T12:39:00;-2.00;99.90
20057;DHT22;10189;49.546;7.906;2023-12-04T12:41:29;-1.90;99.90
20057;DHT22;10189;49.546;7.906;2023-12-04T12:43:56;-1.90;99.90
20057;DHT22;10189;49.546;7.906;2023-12-04T12:46:22;-2.00;99.90
20057;DHT22;10189;49.546;7.906;2023-12-04T12:48:48;-2.00;99.90
20057;DHT22;10189;49.546;7.906;2023-12-04T12:51:14;-2.10;99.90
20057;DHT22;10189;49.546;7.906;2023-12-04T12:53:40;-2.10;99.90
20057;DHT22;10189;49.546;7.906;2023-12-04T12:56:06;-2.20;99.90
20057;DHT22;10189;49.546;7.906;2023-12-04T12:58:33;-2.20;99.90
20057;DHT22;10189;49.546;7.906;2023-12-04T13:01:00;-2.30;99.90
20057;DHT22;10189;49.546;7.906;2023-12-04T13:03:28;-2.30;99.90
20057;DHT22;10189;49.546;7.906;2023-12-04T13:05:57;-2.30;99.90
20057;DHT22;10189;49.546;7.906;2023-12-04T13:08:22;-2.40;99.90
20057;DHT22;10189;49.546;7.906;2023-12-04T13:10:48;-2.40;99.90
20057;DHT22;10189;49.546;7.906;2023-12-04T13:13:15;-2.30;99.90
20057;DHT22;10189;49.546;7.906;2023-12-04T13:15:42;-2.30;99.90
20057;DHT22;10189;49.546;7.906;2023-12-04T13:18:08;-2.30;99.90
20057;DHT22;10189;49.546;7.906;2023-12-04T13:20:34;-2.40;99.90
20057;DHT22;10189;49.546;7.906;2023-12-04T13:23:01;-2.40;99.90
20057;DHT22;10189;49.546;7.906;2023-12-04T13:25:27;-2.30;99.90
20057;DHT22;10189;49.546;7.906;2023-12-04T13:27:53;-2.30;99.90
20057;DHT22;10189;49.546;7.906;2023-12-04T13:30:19;-2.30;99.90
20057;DHT22;10189;49.546;7.906;2023-12-04T13:32:46;-2.20;99.90
20057;DHT22;10189;49.546;7.906;2023-12-04T13:35:12;-2.10;99.90
20057;DHT22;10189;49.546;7.906;2023-12-04T13:37:38;-2.00;99.90
20057;DHT22;10189;49.546;7.906;2023-12-04T13:40:06;-2.00;99.90
20057;DHT22;10189;49.546;7.906;2023-12-04T13:42:33;-2.10;99.90
20057;DHT22;10189;49.546;7.906;2023-12-04T13:45:18;-2.10;99.90
20057;DHT22;10189;49.546;7.906;2023-12-04T13:47:47;-2.10;99.90
20057;DHT22;10189;49.546;7.906;2023-12-04T13:50:14;-2.20;99.90
20057;DHT22;10189;49.546;7.906;2023-12-04T13:52:40;-2.20;99.90
20057;DHT22;10189;49.546;7.906;2023-12-04T13:55:08;-2.20;99.90
20057;DHT22;10189;49.546;7.906;2023-12-04T13:58:00;-2.30;99.90
20057;DHT22;10189;49.546;7.906;2023-12-04T14:00:26;-2.30;99.90
20057;DHT22;10189;49.546;7.906;2023-12-04T14:02:52;-2.40;99.90
20057;DHT22;10189;49.546;7.906;2023-12-04T14:05:21;-2.40;99.90
20057;DHT22;10189;49.546;7.906;2023-12-04T14:07:49;-2.40;99.90
20057;DHT22;10189;49.546;7.906;2023-12-04T14:10:16;-2.30;99.90
20057;DHT22;10189;49.546;7.906;2023-12-04T14:12:42;-2.30;99.90
20057;DHT22;10189;49.546;7.906;2023-12-04T14:15:08;-2.40;99.90
20057;DHT22;10189;49.546;7.906;2023-12-04T14:17:34;-2.40;99.90
20057;DHT22;10189;49.546;7.906;2023-12-04T14:20:00;-2.40;99.90
20057;DHT22;10189;49.546;7.906;2023-12-04T14:22:30;-2.40;99.90
20057;DHT22;10189;49.546;7.906;2023-12-04T14:24:56;-2.40;99.90
20057;DHT22;10189;49.546;7.906;2023-12-04T14:27:22;-2.40;99.90
20057;DHT22;10189;49.546;7.906;2023-12-04T14:29:48;-2.40;99.90
20057;DHT22;10189;49.546;7.906;2023-12-04T14:32:14;-2.50;99.90
20057;DHT22;10189;49.546;7.906;2023-12-04T14:34:40;-2.50;99.90
20057;DHT22;10189;49.546;7.906;2023-12-04T14:37:05;-2.50;99.90
20057;DHT22;10189;49.546;7.906;2023-12-04T14:39:34;-2.50;99.90
20057;DHT22;10189;49.546;7.906;2023-12-04T14:42:00;-2.50;99.90
20057;DHT22;10189;49.546;7.906;2023-12-04T14:44:26;-2.60;99.90
20057;DHT22;10189;49.546;7.906;2023-12-04T14:46:52;-2.60;99.90
20057;DHT22;10189;49.546;7.906;2023-12-04T14:49:18;-2.60;99.90
20057;DHT22;10189;49.546;7.906;2023-12-04T14:51:44;-2.70;99.90
20057;DHT22;10189;49.546;7.906;2023-12-04T14:54:14;-2.60;99.90
20057;DHT22;10189;49.546;7.906;2023-12-04T14:56:49;-2.60;99.90
20057;DHT22;10189;49.546;7.906;2023-12-04T14:59:21;-2.60;99.90
20057;DHT22;10189;49.546;7.906;2023-12-04T15:02:07;-2.50;99.90
20057;DHT22;10189;49.546;7.906;2023-12-04T15:04:36;-2.50;99.90
20057;DHT22;10189;49.546;7.906;2023-12-04T15:07:20;-2.50;99.90
20057;DHT22;10189;49.546;7.906;2023-12-04T15:10:13;-2.50;99.90
20057;DHT22;10189;49.546;7.906;2023-12-04T15:13:05;-2.40;99.90
20057;DHT22;10189;49.546;7.906;2023-12-04T15:15:31;-2.50;99.90
20057;DHT22;10189;49.546;7.906;2023-12-04T15:18:15;-2.50;99.90
20057;DHT22;10189;49.546;7.906;2023-12-04T15:20:59;-2.60;99.90
20057;DHT22;10189;49.546;7.906;2023-12-04T15:23:25;-2.50;99.90
20057;DHT22;10189;49.546;7.906;2023-12-04T15:25:51;-2.40;99.90
20057;DHT22;10189;49.546;7.906;2023-12-04T15:28:17;-2.40;99.90
20057;DHT22;10189;49.546;7.906;2023-12-04T15:30:42;-2.40;99.90
20057;DHT22;10189;49.546;7.906;2023-12-04T15:33:10;-2.40;99.90
20057;DHT22;10189;49.546;7.906;2023-12-04T15:35:36;-2.30;99.90
20057;DHT22;10189;49.546;7.906;2023-12-04T15:38:04;-2.30;99.90
20057;DHT22;10189;49.546;7.906;2023-12-04T15:40:30;-2.30;99.90